createdAt,value
2022-12-26T00:01:56.375Z,9.40
2022-12-26T00:04:50.812Z,9.30
2022-12-26T00:07:10.257Z,9.30
2022-12-26T00:09:36.971Z,9.60
2022-12-26T00:12:03.931Z,9.50
2022-12-26T00:14:30.679Z,9.50
2022-12-26T00:16:57.322Z,9.50
2022-12-26T00:19:24.014Z,9.40
2022-12-26T00:21:50.702Z,9.40
2022-12-26T00:24:17.405Z,9.40
2022-12-26T00:26:44.047Z,9.40
2022-12-26T00:29:10.839Z,9.40
2022-12-26T00:31:37.532Z,9.30
2022-12-26T00:34:04.298Z,9.30
2022-12-26T00:36:33.086Z,9.20
2022-12-26T00:39:01.896Z,9.20
2022-12-26T00:41:29.344Z,9.10
2022-12-26T00:43:56.433Z,9.10
2022-12-26T00:46:23.565Z,9.00
2022-12-26T00:48:50.318Z,9.00
2022-12-26T00:51:17.393Z,9.00
2022-12-26T00:53:44.158Z,8.90
2022-12-26T00:56:11.343Z,8.90
2022-12-26T00:58:38.292Z,8.90
2022-12-26T01:01:12.133Z,8.80
2022-12-26T01:03:39.727Z,8.70
2022-12-26T01:06:06.555Z,8.70
2022-12-26T01:08:33.501Z,8.60
2022-12-26T01:11:04.669Z,8.60
2022-12-26T01:13:31.467Z,8.60
2022-12-26T01:15:58.308Z,8.50
2022-12-26T01:18:25.022Z,8.60
2022-12-26T01:20:51.776Z,8.60
2022-12-26T01:23:18.626Z,8.60
2022-12-26T01:26:15.060Z,8.60
2022-12-26T01:28:32.145Z,8.60
2022-12-26T01:31:05.889Z,8.50
2022-12-26T01:33:33.027Z,8.50
2022-12-26T01:36:00.050Z,8.50
2022-12-26T01:38:27.699Z,8.50
2022-12-26T01:41:13.425Z,8.50
2022-12-26T01:44:24.515Z,8.50
2022-12-26T01:46:52.081Z,8.50
2022-12-26T01:49:41.478Z,8.50
2022-12-26T01:52:15.751Z,8.50
2022-12-26T01:54:47.851Z,8.50
2022-12-26T01:57:30.230Z,8.60
2022-12-26T01:59:58.428Z,8.50
2022-12-26T02:02:28.607Z,8.50
2022-12-26T02:05:16.501Z,8.50
2022-12-26T02:07:46.420Z,8.50
2022-12-26T02:10:21.911Z,8.40
2022-12-26T02:12:49.701Z,8.40
2022-12-26T02:15:17.697Z,8.40
2022-12-26T02:17:44.743Z,8.50
2022-12-26T02:20:20.404Z,8.50
2022-12-26T02:23:02.195Z,8.50
2022-12-26T02:25:46.959Z,8.50
2022-12-26T02:28:35.758Z,8.60
2022-12-26T02:31:25.247Z,8.60
2022-12-26T02:34:00.625Z,8.70
2022-12-26T02:36:52.283Z,8.90
2022-12-26T02:39:46.930Z,8.90
2022-12-26T02:42:44.316Z,8.90
2022-12-26T02:45:41.902Z,8.90
2022-12-26T02:48:18.881Z,8.90
2022-12-26T02:51:46.612Z,9.00
2022-12-26T02:54:43.885Z,9.10
2022-12-26T02:57:36.438Z,9.10
2022-12-26T03:00:32.144Z,9.30
2022-12-26T03:03:26.115Z,9.40
2022-12-26T03:06:23.016Z,9.60
2022-12-26T03:09:30.909Z,9.60
2022-12-26T03:12:25.329Z,9.60
2022-12-26T03:14:59.513Z,9.60
2022-12-26T03:17:35.453Z,9.70
2022-12-26T03:20:10.656Z,9.80
2022-12-26T03:22:42.828Z,9.90
2022-12-26T03:25:33.684Z,9.90
2022-12-26T03:28:00.384Z,10.00
2022-12-26T03:30:45.772Z,10.00
2022-12-26T03:33:31.146Z,10.00
2022-12-26T03:35:59.081Z,10.00
2022-12-26T03:39:07.852Z,9.90
2022-12-26T03:42:07.588Z,9.90
2022-12-26T03:44:58.771Z,9.90
2022-12-26T03:47:58.661Z,9.80
2022-12-26T03:51:00.863Z,9.70
2022-12-26T03:54:11.076Z,9.80
2022-12-26T03:57:06.247Z,9.80
2022-12-26T04:00:07.411Z,9.80
2022-12-26T04:02:55.385Z,9.80
2022-12-26T04:05:41.001Z,9.80
2022-12-26T04:08:34.525Z,9.80
2022-12-26T04:11:21.541Z,9.90
2022-12-26T04:14:22.503Z,10.00
2022-12-26T04:17:28.508Z,10.20
2022-12-26T04:20:13.707Z,10.40
2022-12-26T04:23:03.851Z,10.60
2022-12-26T04:26:05.489Z,10.70
2022-12-26T04:28:51.246Z,10.80
2022-12-26T04:31:49.071Z,10.80
2022-12-26T04:34:40.827Z,10.90
2022-12-26T04:37:36.527Z,10.90
2022-12-26T04:40:25.915Z,11.00
2022-12-26T04:43:50.186Z,11.00
2022-12-26T04:45:58.610Z,10.90
2022-12-26T04:48:44.053Z,10.80
2022-12-26T04:51:10.664Z,10.70
2022-12-26T04:53:37.348Z,10.50
2022-12-26T04:56:05.042Z,10.30
2022-12-26T04:58:31.748Z,10.10
2022-12-26T05:01:18.532Z,10.00
2022-12-26T05:04:04.195Z,10.00
2022-12-26T05:06:49.747Z,9.90
2022-12-26T05:09:34.597Z,9.90
2022-12-26T05:12:07.242Z,10.00
2022-12-26T05:14:35.949Z,10.20
2022-12-26T05:17:25.895Z,10.40
2022-12-26T05:20:11.528Z,10.50
2022-12-26T05:22:59.745Z,10.60
2022-12-26T05:25:48.713Z,10.80
2022-12-26T05:28:35.340Z,10.80
2022-12-26T05:31:02.784Z,10.80
2022-12-26T05:33:48.336Z,10.80
2022-12-26T05:36:17.260Z,10.80
2022-12-26T05:38:44.012Z,10.90
2022-12-26T05:41:10.755Z,10.90
2022-12-26T05:43:37.432Z,10.90
2022-12-26T05:46:04.231Z,10.90
2022-12-26T05:48:30.952Z,10.80
2022-12-26T05:51:01.744Z,10.80
2022-12-26T05:53:29.730Z,10.70
2022-12-26T05:56:01.538Z,10.70
2022-12-26T05:58:28.211Z,10.80
2022-12-26T06:01:07.788Z,10.80
2022-12-26T06:03:35.680Z,10.70
2022-12-26T06:06:02.759Z,10.70
2022-12-26T06:08:29.585Z,10.70
2022-12-26T06:10:56.352Z,10.70
2022-12-26T06:13:23.198Z,10.70
2022-12-26T06:15:49.873Z,10.70
2022-12-26T06:18:16.620Z,10.70
2022-12-26T06:20:43.454Z,10.60
2022-12-26T06:23:10.078Z,10.50
2022-12-26T06:25:36.713Z,10.40
2022-12-26T06:28:03.575Z,10.40
2022-12-26T06:30:30.285Z,10.40
2022-12-26T06:32:56.941Z,10.40
2022-12-26T06:35:23.691Z,10.40
2022-12-26T06:37:50.370Z,10.40
2022-12-26T06:40:28.859Z,10.30
2022-12-26T06:42:55.508Z,10.30
2022-12-26T06:45:22.752Z,10.30
2022-12-26T06:47:49.564Z,10.30
2022-12-26T06:50:16.343Z,10.20
2022-12-26T06:52:42.991Z,10.20
2022-12-26T06:55:09.939Z,10.10
2022-12-26T06:57:36.632Z,10.10
2022-12-26T07:00:04.018Z,10.10
2022-12-26T07:02:30.733Z,10.00
2022-12-26T07:04:57.495Z,10.00
2022-12-26T07:07:24.141Z,10.00
2022-12-26T07:09:50.831Z,10.00
2022-12-26T07:12:20.716Z,10.00
2022-12-26T07:14:48.258Z,10.00
2022-12-26T07:17:15.181Z,10.00
2022-12-26T07:19:41.845Z,10.00
2022-12-26T07:22:08.542Z,10.00
2022-12-26T07:24:35.161Z,10.00
2022-12-26T07:27:01.870Z,9.90
2022-12-26T07:29:28.607Z,9.90
2022-12-26T07:31:55.323Z,10.00
2022-12-26T07:34:26.385Z,10.10
2022-12-26T07:36:56.248Z,10.30
2022-12-26T07:39:23.008Z,10.30
2022-12-26T07:41:58.621Z,10.40
2022-12-26T07:44:31.429Z,10.40
2022-12-26T07:46:59.377Z,10.50
2022-12-26T07:49:26.523Z,10.50
2022-12-26T07:51:53.606Z,10.50
2022-12-26T07:54:20.430Z,10.50
2022-12-26T07:56:47.071Z,10.60
2022-12-26T07:59:17.805Z,10.60
2022-12-26T08:01:44.746Z,10.60
2022-12-26T08:04:12.727Z,10.60
2022-12-26T08:06:39.727Z,10.60
2022-12-26T08:09:06.805Z,10.70
2022-12-26T08:11:35.180Z,10.70
2022-12-26T08:14:02.338Z,10.60
2022-12-26T08:16:29.217Z,10.70
2022-12-26T08:18:55.947Z,10.70
2022-12-26T08:21:22.639Z,10.70
2022-12-26T08:23:49.330Z,10.80
2022-12-26T08:26:20.866Z,10.70
2022-12-26T08:28:47.637Z,10.70
2022-12-26T08:31:15.020Z,10.70
2022-12-26T08:33:42.209Z,10.70
2022-12-26T08:36:12.752Z,10.70
2022-12-26T08:38:40.434Z,10.70
2022-12-26T08:41:07.300Z,10.70
2022-12-26T08:44:16.079Z,10.60
2022-12-26T08:46:21.894Z,10.70
2022-12-26T08:48:50.221Z,10.60
2022-12-26T08:51:24.977Z,10.60
2022-12-26T08:53:54.112Z,10.50
2022-12-26T08:56:23.811Z,10.50
2022-12-26T08:58:50.926Z,10.50
2022-12-26T09:01:22.600Z,10.50
2022-12-26T09:03:53.595Z,10.50
2022-12-26T09:06:20.449Z,10.50
2022-12-26T09:08:47.330Z,10.30
2022-12-26T09:11:17.171Z,10.30
2022-12-26T09:13:45.202Z,10.20
2022-12-26T09:16:15.555Z,10.00
2022-12-26T09:18:43.861Z,9.90
2022-12-26T09:21:12.200Z,10.00
2022-12-26T09:23:39.872Z,9.80
2022-12-26T09:26:11.448Z,9.80
2022-12-26T09:28:39.090Z,9.70
2022-12-26T09:31:25.694Z,9.60
2022-12-26T09:33:55.518Z,9.50
2022-12-26T09:36:26.483Z,9.50
2022-12-26T09:38:54.172Z,9.40
2022-12-26T09:41:29.901Z,9.30
2022-12-26T09:44:18.290Z,9.30
2022-12-26T09:47:25.706Z,9.30
2022-12-26T09:50:12.522Z,9.30
2022-12-26T09:53:05.635Z,9.40
2022-12-26T09:55:57.328Z,9.30
2022-12-26T09:58:28.851Z,9.20
2022-12-26T10:01:10.658Z,9.30
2022-12-26T10:03:51.401Z,9.30
2022-12-26T10:06:23.416Z,9.40
2022-12-26T10:09:14.147Z,9.50
2022-12-26T10:12:13.486Z,9.50
2022-12-26T10:15:11.648Z,9.50
2022-12-26T10:17:48.139Z,9.50
2022-12-26T10:20:32.958Z,9.50
2022-12-26T10:23:16.571Z,9.50
2022-12-26T10:25:58.738Z,9.40
2022-12-26T10:28:52.926Z,9.40
2022-12-26T10:31:26.909Z,9.30
2022-12-26T10:33:55.826Z,9.30
2022-12-26T10:36:30.960Z,9.30
2022-12-26T10:39:00.945Z,9.30
2022-12-26T10:41:38.879Z,9.30
2022-12-26T10:44:05.834Z,9.30
2022-12-26T10:46:56.861Z,9.20
2022-12-26T10:49:25.810Z,9.20
2022-12-26T10:51:55.290Z,9.20
2022-12-26T10:54:22.165Z,9.30
2022-12-26T10:56:51.029Z,9.30
2022-12-26T10:59:22.985Z,9.30
2022-12-26T11:01:50.355Z,9.30
2022-12-26T11:07:12.854Z,9.40
2022-12-26T11:09:39.713Z,9.50
2022-12-26T11:12:18.222Z,9.50
2022-12-26T11:14:46.301Z,9.50
2022-12-26T11:17:44.273Z,9.60
2022-12-26T11:20:31.812Z,9.60
2022-12-26T11:23:18.674Z,9.70
2022-12-26T11:25:51.529Z,9.80
2022-12-26T11:28:33.600Z,9.90
2022-12-26T11:31:04.990Z,9.80
2022-12-26T11:33:41.599Z,9.90
2022-12-26T11:36:17.840Z,9.90
2022-12-26T11:38:50.735Z,9.90
2022-12-26T11:41:32.059Z,9.80
2022-12-26T11:44:02.387Z,9.80
2022-12-26T11:46:54.514Z,9.70
2022-12-26T11:49:38.755Z,9.70
2022-12-26T11:52:33.182Z,9.70
2022-12-26T11:55:00.368Z,9.70
2022-12-26T11:57:33.570Z,9.60
2022-12-26T12:00:20.299Z,9.80
2022-12-26T12:02:47.217Z,9.80
2022-12-26T12:05:19.322Z,9.90
2022-12-26T12:08:07.318Z,10.10
2022-12-26T12:10:48.758Z,10.10
2022-12-26T12:13:49.093Z,10.30
2022-12-26T12:16:47.978Z,10.20
2022-12-26T12:19:32.660Z,10.10
2022-12-26T12:22:20.954Z,10.20
2022-12-26T12:25:05.485Z,10.20
2022-12-26T12:27:35.940Z,10.10
2022-12-26T12:30:26.880Z,10.10
2022-12-26T12:33:03.932Z,10.10
2022-12-26T12:35:42.753Z,10.10
2022-12-26T12:38:18.606Z,10.10
2022-12-26T12:41:30.817Z,10.10
2022-12-26T12:44:23.000Z,10.10
2022-12-26T12:47:12.726Z,10.10
2022-12-26T12:49:46.164Z,10.10
2022-12-26T12:52:34.972Z,10.10
2022-12-26T12:55:21.963Z,10.10
2022-12-26T12:57:57.602Z,10.10
2022-12-26T13:00:32.991Z,10.10
2022-12-26T13:03:02.285Z,10.00
2022-12-26T13:06:10.205Z,10.00
2022-12-26T13:08:59.609Z,10.10
2022-12-26T13:11:32.370Z,10.10
2022-12-26T13:14:13.719Z,10.10
2022-12-26T13:16:45.067Z,10.20
2022-12-26T13:19:38.839Z,10.30
2022-12-26T13:22:19.319Z,10.30
2022-12-26T13:24:51.644Z,10.30
2022-12-26T13:27:30.799Z,10.30
2022-12-26T13:29:57.941Z,10.40
2022-12-26T13:32:30.335Z,10.50
2022-12-26T13:34:59.591Z,10.40
2022-12-26T13:37:38.377Z,10.40
2022-12-26T13:40:11.242Z,10.30
2022-12-26T13:43:10.319Z,10.30
2022-12-26T13:45:42.912Z,10.30
2022-12-26T13:48:12.754Z,10.30
2022-12-26T13:51:00.073Z,10.30
2022-12-26T13:53:26.734Z,10.30
2022-12-26T13:55:58.563Z,10.20
2022-12-26T13:58:43.273Z,10.00
2022-12-26T14:01:55.057Z,10.10
2022-12-26T14:04:40.231Z,10.00
2022-12-26T14:07:19.164Z,10.00
2022-12-26T14:09:59.516Z,10.00
2022-12-26T14:12:31.689Z,10.10
2022-12-26T14:15:24.671Z,10.00
2022-12-26T14:18:23.489Z,10.00
2022-12-26T14:21:12.379Z,10.00
2022-12-26T14:23:48.487Z,10.00
2022-12-26T14:26:52.887Z,10.00
2022-12-26T14:29:48.651Z,10.10
2022-12-26T14:32:40.368Z,10.10
2022-12-26T14:35:27.877Z,10.10
2022-12-26T14:38:32.278Z,10.10
2022-12-26T14:41:00.915Z,10.00
2022-12-26T14:43:36.269Z,9.90
2022-12-26T14:46:23.489Z,9.90
2022-12-26T14:48:55.185Z,9.80
2022-12-26T14:51:27.323Z,9.80
2022-12-26T14:54:09.317Z,9.70
2022-12-26T14:56:37.791Z,9.70
2022-12-26T14:59:32.089Z,9.60
2022-12-26T15:02:07.495Z,9.60
2022-12-26T15:04:37.001Z,9.60
2022-12-26T15:07:44.888Z,9.60
2022-12-26T15:10:25.514Z,9.50
2022-12-26T15:13:07.432Z,9.50
2022-12-26T15:16:12.022Z,9.50
2022-12-26T15:19:03.562Z,9.50
2022-12-26T15:22:17.834Z,9.50
2022-12-26T15:25:18.899Z,9.50
2022-12-26T15:27:59.271Z,9.50
2022-12-26T15:30:57.144Z,9.50
2022-12-26T15:33:40.264Z,9.40
2022-12-26T15:36:18.972Z,9.40
2022-12-26T15:39:01.887Z,9.50
2022-12-26T15:41:46.910Z,9.50
2022-12-26T15:44:32.979Z,9.50
2022-12-26T15:47:41.187Z,9.60
2022-12-26T15:50:26.528Z,9.60
2022-12-26T15:52:59.582Z,9.60
2022-12-26T15:55:26.217Z,9.60
2022-12-26T15:57:58.912Z,9.50
2022-12-26T16:00:50.221Z,9.50
2022-12-26T16:03:22.811Z,9.50
2022-12-26T16:06:28.045Z,9.40
2022-12-26T16:09:00.263Z,9.40
2022-12-26T16:11:41.808Z,9.40
2022-12-26T16:14:23.780Z,9.40
2022-12-26T16:16:50.606Z,9.40
2022-12-26T16:19:27.465Z,9.30
2022-12-26T16:22:22.717Z,9.30
2022-12-26T16:24:53.483Z,9.20
2022-12-26T16:27:24.376Z,9.20
2022-12-26T16:30:01.371Z,9.20
2022-12-26T16:32:39.602Z,9.20
2022-12-26T16:35:14.862Z,9.20
2022-12-26T16:37:43.112Z,9.10
2022-12-26T16:40:16.006Z,9.10
2022-12-26T16:42:45.095Z,9.00
2022-12-26T16:45:19.375Z,9.00
2022-12-26T16:47:47.197Z,8.90
2022-12-26T16:50:22.204Z,8.90
2022-12-26T16:52:49.905Z,8.90
2022-12-26T16:55:22.644Z,9.00
2022-12-26T16:57:52.337Z,8.90
2022-12-26T17:00:21.169Z,8.90
2022-12-26T17:02:52.095Z,8.90
2022-12-26T17:05:33.887Z,8.90
2022-12-26T17:08:02.983Z,8.80
2022-12-26T17:10:37.448Z,8.70
2022-12-26T17:13:07.236Z,8.70
2022-12-26T17:15:38.764Z,8.60
2022-12-26T17:18:36.048Z,8.60
2022-12-26T17:21:42.194Z,8.60
2022-12-26T17:24:14.832Z,8.50
2022-12-26T17:26:43.935Z,8.40
2022-12-26T17:29:46.508Z,8.40
2022-12-26T17:32:35.114Z,8.50
2022-12-26T17:35:05.143Z,8.40
2022-12-26T17:37:32.456Z,8.40
2022-12-26T17:40:27.715Z,8.40
2022-12-26T17:43:14.603Z,8.40
2022-12-26T17:45:47.004Z,8.40
2022-12-26T17:48:14.343Z,8.40
2022-12-26T17:50:43.495Z,8.40
2022-12-26T17:53:22.272Z,8.30
2022-12-26T17:55:50.310Z,8.30
2022-12-26T17:58:17.452Z,8.30
2022-12-26T18:00:44.666Z,8.20
2022-12-26T18:03:11.644Z,8.20
2022-12-26T18:05:39.634Z,8.20
2022-12-26T18:08:06.782Z,8.10
2022-12-26T18:10:36.268Z,8.10
2022-12-26T18:13:04.696Z,8.10
2022-12-26T18:15:31.837Z,8.00
2022-12-26T18:17:58.658Z,7.90
2022-12-26T18:20:30.072Z,7.80
2022-12-26T18:22:57.169Z,7.60
2022-12-26T18:25:25.422Z,7.60
2022-12-26T18:27:52.133Z,7.50
2022-12-26T18:30:22.265Z,7.40
2022-12-26T18:32:50.643Z,7.40
2022-12-26T18:35:18.237Z,7.40
2022-12-26T18:37:49.220Z,7.40
2022-12-26T18:40:38.091Z,7.40
2022-12-26T18:43:06.833Z,7.40
2022-12-26T18:45:34.567Z,7.40
2022-12-26T18:48:02.290Z,7.30
2022-12-26T18:50:30.607Z,7.20
2022-12-26T18:52:57.524Z,7.20
2022-12-26T18:55:25.667Z,7.10
2022-12-26T18:57:53.401Z,7.10
2022-12-26T19:00:21.734Z,7.10
2022-12-26T19:02:49.376Z,7.10
2022-12-26T19:05:29.139Z,7.10
2022-12-26T19:07:56.132Z,7.10
2022-12-26T19:10:27.045Z,7.30
2022-12-26T19:12:53.847Z,7.30
2022-12-26T19:15:20.802Z,7.30
2022-12-26T19:17:47.495Z,7.30
2022-12-26T19:20:21.274Z,7.30
2022-12-26T19:22:49.222Z,7.20
2022-12-26T19:25:16.987Z,7.10
2022-12-26T19:27:43.808Z,7.10
2022-12-26T19:30:11.565Z,7.00
2022-12-26T19:32:38.731Z,6.90
2022-12-26T19:35:05.941Z,6.90
2022-12-26T19:37:33.099Z,6.90
2022-12-26T19:39:59.740Z,6.80
2022-12-26T19:42:26.717Z,6.80
2022-12-26T19:44:53.751Z,6.80
2022-12-26T19:47:20.706Z,6.70
2022-12-26T19:49:47.624Z,6.80
2022-12-26T19:52:14.378Z,6.80
2022-12-26T19:54:42.405Z,6.80
2022-12-26T19:57:09.104Z,6.80
2022-12-26T19:59:35.885Z,6.80
2022-12-26T20:02:02.899Z,6.80
2022-12-26T20:04:30.317Z,6.80
2022-12-26T20:07:00.383Z,6.60
2022-12-26T20:09:27.300Z,6.70
2022-12-26T20:11:54.229Z,6.60
2022-12-26T20:14:23.617Z,6.60
2022-12-26T20:17:08.867Z,6.60
2022-12-26T20:19:37.234Z,6.60
2022-12-26T20:22:05.630Z,6.60
2022-12-26T20:24:33.042Z,6.50
2022-12-26T20:26:59.957Z,6.50
2022-12-26T20:29:26.940Z,6.50
2022-12-26T20:31:56.366Z,6.40
2022-12-26T20:34:23.147Z,6.30
2022-12-26T20:36:50.143Z,6.30
2022-12-26T20:39:18.874Z,6.30
2022-12-26T20:41:46.448Z,6.30
2022-12-26T20:44:14.627Z,6.30
2022-12-26T20:46:42.327Z,6.30
2022-12-26T20:49:10.039Z,6.30
2022-12-26T20:51:39.141Z,6.30
2022-12-26T20:54:08.380Z,6.30
2022-12-26T20:56:36.490Z,6.30
2022-12-26T20:59:04.049Z,6.30
2022-12-26T21:01:31.216Z,6.30
2022-12-26T21:03:58.981Z,6.30
2022-12-26T21:06:32.172Z,6.30
2022-12-26T21:09:02.605Z,6.20
2022-12-26T21:11:38.395Z,6.20
2022-12-26T21:14:11.155Z,6.20
2022-12-26T21:16:48.371Z,6.20
2022-12-26T21:19:16.990Z,6.10
2022-12-26T21:21:49.928Z,6.10
2022-12-26T21:24:35.081Z,6.10
2022-12-26T21:27:02.308Z,6.10
2022-12-26T21:29:33.315Z,6.10
2022-12-26T21:32:01.777Z,6.00
2022-12-26T21:34:31.713Z,6.00
2022-12-26T21:37:17.307Z,6.10
2022-12-26T21:39:44.467Z,6.10
2022-12-26T21:42:11.297Z,6.10
2022-12-26T21:44:38.653Z,6.00
2022-12-26T21:47:07.935Z,6.00
2022-12-26T21:49:35.075Z,6.00
2022-12-26T21:52:02.177Z,5.90
2022-12-26T21:54:49.409Z,5.80
2022-12-26T21:57:17.357Z,6.00
2022-12-26T21:59:58.153Z,5.90
2022-12-26T22:02:50.064Z,5.90
2022-12-26T22:05:19.467Z,5.90
2022-12-26T22:07:47.130Z,5.90
2022-12-26T22:10:34.775Z,5.90
2022-12-26T22:13:02.943Z,5.80
2022-12-26T22:15:48.340Z,5.80
2022-12-26T22:18:15.154Z,5.80
2022-12-26T22:20:43.938Z,5.80
2022-12-26T22:23:11.032Z,5.80
2022-12-26T22:25:38.814Z,5.80
2022-12-26T22:28:05.579Z,5.80
2022-12-26T22:30:32.385Z,5.80
2022-12-26T22:32:59.035Z,5.70
2022-12-26T22:35:25.698Z,5.70
2022-12-26T22:37:52.450Z,5.70
2022-12-26T22:51:42.073Z,5.40
2022-12-26T22:54:08.751Z,5.30
2022-12-26T22:56:35.463Z,5.30
2022-12-26T22:59:03.227Z,5.30
2022-12-26T23:01:30.730Z,5.30
2022-12-26T23:03:59.493Z,5.30
2022-12-26T23:06:28.723Z,5.20
2022-12-26T23:08:57.720Z,5.30
2022-12-26T23:11:34.093Z,5.20
2022-12-26T23:14:03.561Z,5.10
2022-12-26T23:16:39.192Z,5.10
2022-12-26T23:20:03.575Z,5.10
2022-12-26T23:22:30.664Z,5.10
2022-12-26T23:24:57.423Z,5.10
2022-12-26T23:27:42.695Z,5.00
2022-12-26T23:30:18.657Z,5.10
2022-12-26T23:32:50.500Z,5.10
2022-12-26T23:35:19.429Z,5.00
2022-12-26T23:37:46.635Z,5.10
2022-12-26T23:40:15.373Z,5.00
2022-12-26T23:42:42.390Z,5.00
2022-12-26T23:45:10.793Z,4.90
2022-12-26T23:47:38.907Z,5.00
2022-12-26T23:50:07.204Z,5.00
2022-12-26T23:52:33.942Z,4.90
2022-12-26T23:55:00.819Z,4.80
2022-12-26T23:57:27.898Z,4.80
2022-12-26T23:59:54.845Z,4.70
